createdAt,value
2018-12-03T00:00:27.381Z,96463.53
2018-12-03T00:02:59.450Z,96462.95
2018-12-03T00:05:28.144Z,96461.31
2018-12-03T00:07:56.781Z,96466.71
2018-12-03T00:10:25.417Z,96459.27
2018-12-03T00:12:53.921Z,96453.86
2018-12-03T00:15:22.442Z,96461.39
2018-12-03T00:17:51.056Z,96453.40
2018-12-03T00:20:19.687Z,96459.27
2018-12-03T00:22:48.342Z,96461.18
2018-12-03T00:25:17.461Z,96463.78
2018-12-03T00:27:52.301Z,96454.66
2018-12-03T00:30:21.464Z,96467.00
2018-12-03T00:32:50.305Z,96469.30
2018-12-03T00:35:18.962Z,96470.39
2018-12-03T00:37:47.630Z,96463.73
2018-12-03T00:40:16.264Z,96452.64
2018-12-03T00:42:44.868Z,96446.36
2018-12-03T00:45:13.470Z,96466.87
2018-12-03T00:47:41.980Z,96456.41
2018-12-03T00:50:10.532Z,96457.66
2018-12-03T00:52:39.058Z,96455.16
2018-12-03T00:55:08.189Z,96472.27
2018-12-03T00:57:37.097Z,96479.02
2018-12-03T01:00:08.281Z,96469.47
2018-12-03T01:02:36.807Z,96466.16
2018-12-03T01:05:06.497Z,96471.34
2018-12-03T01:07:35.010Z,96462.17
2018-12-03T01:10:03.601Z,96462.34
2018-12-03T01:12:32.138Z,96482.19
2018-12-03T01:15:00.691Z,96475.14
2018-12-03T01:17:29.203Z,96475.69
2018-12-03T01:19:57.725Z,96477.11
2018-12-03T01:22:26.245Z,96479.79
2018-12-03T01:24:54.778Z,96477.73
2018-12-03T01:27:23.290Z,96479.95
2018-12-03T01:29:51.814Z,96475.80
2018-12-03T01:32:20.361Z,96468.27
2018-12-03T01:34:48.890Z,96478.78
2018-12-03T01:37:17.469Z,96467.25
2018-12-03T01:39:45.978Z,96467.25
2018-12-03T01:42:14.488Z,96467.41
2018-12-03T01:44:42.990Z,96465.66
2018-12-03T01:47:11.507Z,96462.55
2018-12-03T01:49:40.067Z,96469.21
2018-12-03T01:52:08.601Z,96469.75
2018-12-03T01:54:37.103Z,96465.90
2018-12-03T01:57:05.602Z,96464.73
2018-12-03T01:59:34.373Z,96466.06
2018-12-03T02:02:02.877Z,96459.86
2018-12-03T02:04:31.407Z,96457.34
2018-12-03T02:06:59.913Z,96462.07
2018-12-03T02:09:28.438Z,96452.48
2018-12-03T02:11:56.955Z,96448.78
2018-12-03T02:14:25.496Z,96443.84
2018-12-03T02:16:54.009Z,96444.34
2018-12-03T02:19:22.519Z,96438.97
2018-12-03T02:21:51.051Z,96444.49
2018-12-03T02:24:19.577Z,96449.19
2018-12-03T02:26:48.079Z,96453.83
2018-12-03T02:29:16.578Z,96450.44
2018-12-03T02:31:45.076Z,96443.77
2018-12-03T02:34:13.602Z,96445.19
2018-12-03T02:36:42.107Z,96439.20
2018-12-03T02:39:10.661Z,96440.47
2018-12-03T02:41:39.182Z,96442.14
2018-12-03T02:44:07.674Z,96441.34
2018-12-03T02:46:36.177Z,96444.31
2018-12-03T02:49:04.838Z,96433.34
2018-12-03T02:51:33.357Z,96428.53
2018-12-03T02:54:01.867Z,96431.59
2018-12-03T02:56:30.381Z,96423.97
2018-12-03T02:58:58.896Z,96424.84
2018-12-03T03:01:27.407Z,96425.72
2018-12-03T03:03:55.941Z,96413.22
2018-12-03T03:06:24.459Z,96418.63
2018-12-03T03:08:53.026Z,96419.12
2018-12-03T03:11:21.558Z,96419.12
2018-12-03T03:13:50.070Z,96412.67
2018-12-03T03:16:18.595Z,96416.45
2018-12-03T03:18:47.096Z,96420.98
2018-12-03T03:21:15.639Z,96428.67
2018-12-03T03:23:44.175Z,96423.27
2018-12-03T03:26:12.693Z,96421.71
2018-12-03T03:28:41.251Z,96430.59
2018-12-03T03:31:09.756Z,96431.51
2018-12-03T03:33:38.279Z,96440.00
2018-12-03T03:36:06.805Z,96443.47
2018-12-03T03:38:35.342Z,96446.37
2018-12-03T03:41:03.911Z,96446.37
2018-12-03T03:43:32.431Z,96442.44
2018-12-03T03:46:00.936Z,96450.52
2018-12-03T03:48:29.475Z,96438.67
2018-12-03T03:50:58.011Z,96434.81
2018-12-03T03:53:26.531Z,96424.98
2018-12-03T03:55:55.032Z,96447.45
2018-12-03T03:58:23.566Z,96447.63
2018-12-03T04:00:52.107Z,96427.02
2018-12-03T04:03:20.653Z,96441.72
2018-12-03T04:05:49.181Z,96446.67
2018-12-03T04:08:17.749Z,96439.43
2018-12-03T04:10:46.299Z,96439.43
2018-12-03T04:13:14.858Z,96451.92
2018-12-03T04:15:43.449Z,96440.61
2018-12-03T04:18:11.970Z,96449.48
2018-12-03T04:20:40.541Z,96445.88
2018-12-03T04:23:09.083Z,96448.80
2018-12-03T04:25:37.676Z,96456.97
2018-12-03T04:28:06.259Z,96463.79
2018-12-03T04:30:34.790Z,96454.99
2018-12-03T04:33:03.560Z,96458.77
2018-12-03T04:35:32.325Z,96461.53
2018-12-03T04:38:01.183Z,96456.89
2018-12-03T04:40:30.040Z,96446.67
2018-12-03T04:42:58.713Z,96433.94
2018-12-03T04:45:27.531Z,96445.17
2018-12-03T04:47:56.328Z,96454.43
2018-12-03T04:50:25.097Z,96462.05
2018-12-03T04:52:53.878Z,96453.99
2018-12-03T04:55:22.672Z,96475.98
2018-12-03T04:57:51.601Z,96480.53
2018-12-03T05:00:21.108Z,96511.44
2018-12-03T05:02:51.200Z,96512.36
2018-12-03T05:05:20.158Z,96511.75
2018-12-03T05:07:48.935Z,96496.17
2018-12-03T05:10:18.474Z,96483.14
2018-12-03T05:12:49.211Z,96486.61
2018-12-03T05:15:17.733Z,96485.02
2018-12-03T05:17:46.274Z,96483.84
2018-12-03T05:20:17.205Z,96499.01
2018-12-03T05:22:45.734Z,96497.38
2018-12-03T05:25:19.183Z,96503.73
2018-12-03T05:27:42.817Z,96499.17
2018-12-03T05:30:13.183Z,96500.42
2018-12-03T05:32:42.028Z,96502.02
2018-12-03T05:35:15.077Z,96503.95
2018-12-03T05:37:43.636Z,96490.47
2018-12-03T05:40:18.568Z,96495.48
2018-12-03T05:42:47.237Z,96485.64
2018-12-03T05:45:15.780Z,96482.28
2018-12-03T05:47:44.290Z,96488.56
2018-12-03T05:50:14.023Z,96485.25
2018-12-03T05:52:43.019Z,96487.91
2018-12-03T05:55:12.404Z,96475.73
2018-12-03T05:57:41.021Z,96466.16
2018-12-03T06:00:16.357Z,96460.39
2018-12-03T06:02:44.919Z,96456.00
2018-12-03T06:05:14.221Z,96459.05
2018-12-03T06:07:42.727Z,96457.41
2018-12-03T06:10:14.807Z,96462.60
2018-12-03T06:12:43.318Z,96466.84
2018-12-03T06:15:13.010Z,96468.34
2018-12-03T06:17:41.555Z,96473.52
2018-12-03T06:20:12.489Z,96476.20
2018-12-03T06:22:40.988Z,96477.53
2018-12-03T06:25:14.798Z,96482.64
2018-12-03T06:27:43.301Z,96472.20
2018-12-03T06:30:14.204Z,96473.92
2018-12-03T06:32:42.696Z,96473.08
2018-12-03T06:35:12.395Z,96459.86
2018-12-03T06:37:40.904Z,96467.09
2018-12-03T06:40:14.096Z,96461.69
2018-12-03T06:42:42.594Z,96464.97
2018-12-03T06:45:12.738Z,96463.25
2018-12-03T06:47:46.544Z,96475.18
2018-12-03T06:50:15.052Z,96477.09
2018-12-03T06:52:43.569Z,96485.97
2018-12-03T06:55:12.102Z,96490.20
2018-12-03T06:57:40.614Z,96497.45
2018-12-03T07:00:16.231Z,96499.70
2018-12-03T07:02:44.865Z,96496.81
2018-12-03T07:05:13.457Z,96500.28
2018-12-03T07:07:42.822Z,96507.83
2018-12-03T07:10:18.658Z,96510.00
2018-12-03T07:12:48.626Z,96508.45
2018-12-03T07:15:18.622Z,96523.16
2018-12-03T07:17:47.342Z,96513.48
2018-12-03T07:20:15.869Z,96499.80
2018-12-03T07:22:44.369Z,96506.89
2018-12-03T07:25:13.144Z,96502.63
2018-12-03T07:27:41.677Z,96491.31
2018-12-03T07:30:20.199Z,96496.67
2018-12-03T07:32:49.467Z,96489.67
2018-12-03T07:35:18.756Z,96478.13
2018-12-03T07:37:47.473Z,96477.33
2018-12-03T07:40:15.986Z,96484.95
2018-12-03T07:42:44.502Z,96486.75
2018-12-03T07:45:15.166Z,96505.39
2018-12-03T07:47:43.690Z,96505.55
2018-12-03T07:50:13.436Z,96509.56
2018-12-03T07:52:41.977Z,96510.02
2018-12-03T07:55:12.402Z,96514.83
2018-12-03T07:57:42.334Z,96520.43
2018-12-03T08:00:28.670Z,96524.97
2018-12-03T08:02:57.468Z,96524.28
2018-12-03T08:05:26.160Z,96526.88
2018-12-03T08:07:54.936Z,96523.87
2018-12-03T08:10:23.537Z,96521.62
2018-12-03T08:12:52.552Z,96531.77
2018-12-03T08:15:22.183Z,96533.90
2018-12-03T08:17:58.760Z,96535.31
2018-12-03T08:20:37.715Z,96537.34
2018-12-03T08:23:09.592Z,96537.43
2018-12-03T08:25:38.863Z,96549.06
2018-12-03T08:28:07.462Z,96547.31
2018-12-03T08:30:35.997Z,96558.95
2018-12-03T08:33:04.519Z,96549.83
2018-12-03T08:35:33.095Z,96563.19
2018-12-03T08:38:03.450Z,96579.33
2018-12-03T08:40:30.147Z,96572.69
2018-12-03T08:42:58.757Z,96571.05
2018-12-03T08:45:27.492Z,96581.20
2018-12-03T08:47:56.214Z,96579.70
2018-12-03T08:50:27.945Z,96586.00
2018-12-03T08:52:57.744Z,96591.20
2018-12-03T08:55:26.882Z,96590.39
2018-12-03T08:57:55.562Z,96591.58
2018-12-03T09:00:29.243Z,96590.12
2018-12-03T09:03:04.366Z,96593.75
2018-12-03T09:05:37.879Z,96606.41
2018-12-03T09:08:08.631Z,96598.34
2018-12-03T09:10:37.648Z,96597.45
2018-12-03T09:13:23.259Z,96597.98
2018-12-03T09:15:55.244Z,96602.79
2018-12-03T09:18:24.235Z,96603.89
2018-12-03T09:20:53.192Z,96604.18
2018-12-03T09:23:22.103Z,96615.67
2018-12-03T09:25:51.037Z,96622.50
2018-12-03T09:28:20.253Z,96618.13
2018-12-03T09:30:49.260Z,96621.42
2018-12-03T09:33:18.125Z,96617.47
2018-12-03T09:35:47.131Z,96626.81
2018-12-03T09:38:17.050Z,96621.77
2018-12-03T09:40:45.904Z,96622.16
2018-12-03T09:43:14.954Z,96617.47
2018-12-03T09:45:43.931Z,96621.25
2018-12-03T09:48:13.014Z,96617.87
2018-12-03T09:50:41.924Z,96624.36
2018-12-03T09:53:10.857Z,96623.17
2018-12-03T09:55:39.928Z,96623.54
2018-12-03T09:58:12.833Z,96621.77
2018-12-03T10:00:42.001Z,96615.60
2018-12-03T10:03:16.839Z,96625.59
2018-12-03T10:05:50.545Z,96622.27
2018-12-03T10:08:23.831Z,96624.86
2018-12-03T10:10:55.226Z,96619.81
2018-12-03T10:13:24.200Z,96601.03
2018-12-03T10:15:52.979Z,96600.37
2018-12-03T10:18:21.718Z,96594.66
2018-12-03T10:20:52.239Z,96587.61
2018-12-03T10:23:21.015Z,96589.82
2018-12-03T10:25:51.989Z,96584.18
2018-12-03T10:28:21.004Z,96588.52
2018-12-03T10:30:50.629Z,96591.25
2018-12-03T10:33:33.725Z,96585.47
2018-12-03T10:36:04.440Z,96586.84
2018-12-03T10:38:37.966Z,96581.34
2018-12-03T10:41:19.129Z,96573.52
2018-12-03T10:43:47.934Z,96571.52
2018-12-03T10:46:16.690Z,96488.55
2018-12-03T10:48:45.452Z,96563.09
2018-12-03T10:51:16.435Z,96557.13
2018-12-03T10:53:45.209Z,96550.95
2018-12-03T10:56:13.970Z,96562.45
2018-12-03T10:58:44.643Z,96560.51
2018-12-03T11:01:18.665Z,96559.38
2018-12-03T11:03:52.525Z,96559.12
2018-12-03T11:06:22.517Z,96554.73
2018-12-03T11:08:51.314Z,96546.16
2018-12-03T11:11:20.155Z,96548.23
2018-12-03T11:13:48.859Z,96550.27
2018-12-03T11:16:22.653Z,96547.16
2018-12-03T11:18:54.730Z,96537.64
2018-12-03T11:21:24.340Z,96535.63
2018-12-03T11:23:53.130Z,96532.91
2018-12-03T11:26:21.880Z,96531.20
2018-12-03T11:28:53.564Z,96538.39
2018-12-03T11:31:25.158Z,96536.31
2018-12-03T11:33:53.863Z,96526.41
2018-12-03T11:36:25.254Z,96520.77
2018-12-03T11:39:02.372Z,96520.22
2018-12-03T11:41:31.109Z,96517.63
2018-12-03T11:44:00.305Z,96503.34
2018-12-03T11:46:29.358Z,96506.68
2018-12-03T11:48:58.728Z,96501.56
2018-12-03T11:51:27.489Z,96498.88
2018-12-03T11:53:56.297Z,96492.11
2018-12-03T11:56:25.698Z,96486.34
2018-12-03T11:58:54.993Z,96496.59
2018-12-03T12:01:24.161Z,96500.77
2018-12-03T12:03:52.937Z,96489.78
2018-12-03T12:06:21.647Z,96489.59
2018-12-03T12:08:50.344Z,96481.50
2018-12-03T12:11:19.159Z,96474.80
2018-12-03T12:13:47.927Z,96476.06
2018-12-03T12:16:16.600Z,96471.95
2018-12-03T12:18:45.331Z,96472.02
2018-12-03T12:21:14.074Z,96467.42
2018-12-03T12:23:42.853Z,96467.88
2018-12-03T12:26:11.565Z,96470.69
2018-12-03T12:28:40.363Z,96452.53
2018-12-03T12:31:09.118Z,96447.09
2018-12-03T12:33:37.802Z,96434.53
2018-12-03T12:36:06.805Z,96440.09
2018-12-03T12:38:35.531Z,96438.56
2018-12-03T12:41:04.289Z,96430.05
2018-12-03T12:43:33.045Z,96420.56
2018-12-03T12:46:07.765Z,96420.02
2018-12-03T12:48:36.474Z,96415.51
2018-12-03T12:51:05.346Z,96412.56
2018-12-03T12:53:34.842Z,96416.84
2018-12-03T12:56:03.705Z,96413.31
2018-12-03T12:58:32.496Z,96410.79
2018-12-03T13:01:01.380Z,96413.64
2018-12-03T13:03:30.861Z,96416.59
2018-12-03T13:05:59.626Z,96404.80
2018-12-03T13:08:28.384Z,96399.36
2018-12-03T13:10:57.136Z,96399.42
2018-12-03T13:13:25.909Z,96383.40
2018-12-03T13:15:54.637Z,96386.80
2018-12-03T13:18:23.474Z,96383.45
2018-12-03T13:20:52.485Z,96378.53
2018-12-03T13:23:21.698Z,96378.08
2018-12-03T13:25:50.261Z,96373.48
2018-12-03T13:28:19.045Z,96374.41
2018-12-03T13:30:47.879Z,96361.91
2018-12-03T13:33:16.645Z,96369.03
2018-12-03T13:35:45.945Z,96374.33
2018-12-03T13:38:14.723Z,96379.77
2018-12-03T13:40:43.522Z,96375.59
2018-12-03T13:43:12.351Z,96372.31
2018-12-03T13:45:41.191Z,96261.26
2018-12-03T13:48:10.086Z,96356.16
2018-12-03T13:50:38.978Z,96361.64
2018-12-03T13:53:07.792Z,96367.95
2018-12-03T13:55:36.571Z,96364.87
2018-12-03T13:58:05.445Z,96367.47
2018-12-03T14:00:34.281Z,96366.27
2018-12-03T14:03:07.746Z,96377.30
2018-12-03T14:05:41.181Z,96375.71
2018-12-03T14:08:22.205Z,96381.16
2018-12-03T14:11:15.166Z,96389.28
2018-12-03T14:14:24.993Z,96400.77
2018-12-03T14:17:28.803Z,96402.48
2018-12-03T14:19:59.570Z,96401.27
2018-12-03T14:22:33.369Z,96419.41
2018-12-03T14:25:02.169Z,96451.80
2018-12-03T14:27:30.977Z,96437.29
2018-12-03T14:29:59.726Z,96449.61
2018-12-03T14:32:28.475Z,96445.45
2018-12-03T14:34:57.202Z,96461.86
2018-12-03T14:37:26.023Z,96466.25
2018-12-03T14:39:54.766Z,96457.51
2018-12-03T14:42:23.748Z,96452.58
2018-12-03T14:44:52.534Z,96454.66
2018-12-03T14:47:21.251Z,96465.32
2018-12-03T14:49:50.008Z,96471.11
2018-12-03T14:52:18.752Z,96473.09
2018-12-03T14:54:47.540Z,96480.24
2018-12-03T14:57:16.301Z,96496.14
2018-12-03T14:59:45.091Z,96485.40
2018-12-03T15:02:13.986Z,96482.31
2018-12-03T15:04:42.940Z,96478.31
2018-12-03T15:07:11.800Z,96475.38
2018-12-03T15:09:41.264Z,96470.83
2018-12-03T15:12:10.181Z,96484.48
2018-12-03T15:14:39.138Z,96487.02
2018-12-03T15:17:08.164Z,96481.02
2018-12-03T15:19:37.176Z,96466.60
2018-12-03T15:22:06.100Z,96476.82
2018-12-03T15:24:35.107Z,96474.30
2018-12-03T15:27:03.980Z,96455.27
2018-12-03T15:29:32.675Z,96455.19
2018-12-03T15:32:01.393Z,96451.92
2018-12-03T15:34:30.150Z,96448.17
2018-12-03T15:36:58.989Z,96447.13
2018-12-03T15:39:27.742Z,96446.00
2018-12-03T15:41:56.244Z,96441.33
2018-12-03T15:44:24.894Z,96439.39
2018-12-03T15:46:53.641Z,96441.34
2018-12-03T15:49:22.363Z,96428.42
2018-12-03T15:51:51.194Z,96416.45
2018-12-03T15:54:20.068Z,96415.11
2018-12-03T15:56:48.846Z,96408.48
2018-12-03T15:59:17.785Z,96362.83
2018-12-03T16:01:46.718Z,96397.63
2018-12-03T16:04:15.565Z,96419.62
2018-12-03T16:06:44.395Z,96446.22
2018-12-03T16:09:13.950Z,96431.12
2018-12-03T16:11:42.762Z,96420.19
2018-12-03T16:14:11.610Z,96360.20
2018-12-03T16:16:40.397Z,96392.94
2018-12-03T16:19:09.300Z,96399.22
2018-12-03T16:21:38.131Z,96387.41
2018-12-03T16:24:07.172Z,96385.47
2018-12-03T16:26:36.102Z,96388.44
2018-12-03T16:29:04.855Z,96379.11
2018-12-03T16:31:33.855Z,96375.18
2018-12-03T16:34:02.793Z,96375.94
2018-12-03T16:36:33.126Z,96378.38
2018-12-03T16:39:02.085Z,96371.41
2018-12-03T16:41:30.870Z,96369.20
2018-12-03T16:43:59.808Z,96382.08
2018-12-03T16:46:28.873Z,96380.90
2018-12-03T16:48:57.747Z,96384.21
2018-12-03T16:51:26.766Z,96379.48
2018-12-03T16:53:56.437Z,96381.63
2018-12-03T16:56:25.361Z,96370.84
2018-12-03T16:58:54.178Z,96373.77
2018-12-03T17:01:23.055Z,96372.82
2018-12-03T17:03:52.045Z,96370.15
2018-12-03T17:06:20.874Z,96378.81
2018-12-03T17:08:49.878Z,96370.47
2018-12-03T17:11:18.846Z,96364.53
2018-12-03T17:13:47.673Z,96369.23
2018-12-03T17:16:16.914Z,96356.18
2018-12-03T17:18:45.916Z,96361.05
2018-12-03T17:21:20.968Z,96359.80
2018-12-03T17:24:03.121Z,96359.88
2018-12-03T17:26:32.113Z,96365.31
2018-12-03T17:29:00.869Z,96364.44
2018-12-03T17:31:29.710Z,96364.90
2018-12-03T17:33:58.414Z,96364.98
2018-12-03T17:36:27.234Z,96359.03
2018-12-03T17:38:55.937Z,96354.00
2018-12-03T17:41:24.694Z,96350.39
2018-12-03T17:43:53.582Z,96340.87
2018-12-03T17:46:22.264Z,96341.35
2018-12-03T17:48:51.167Z,96330.20
2018-12-03T17:51:19.965Z,96328.56
2018-12-03T17:53:48.661Z,96321.81
2018-12-03T17:56:17.409Z,96328.23
2018-12-03T17:58:46.215Z,96323.06
2018-12-03T18:01:15.003Z,96330.52
2018-12-03T18:03:43.801Z,96325.11
2018-12-03T18:06:17.037Z,96327.28
2018-12-03T18:08:41.392Z,96331.55
2018-12-03T18:11:10.222Z,96326.98
2018-12-03T18:13:38.938Z,96331.62
2018-12-03T18:16:08.057Z,96327.36
2018-12-03T18:18:36.840Z,96332.01
2018-12-03T18:21:05.782Z,96316.46
2018-12-03T18:23:34.286Z,96294.16
2018-12-03T18:26:02.793Z,96264.97
2018-12-03T18:28:31.302Z,96247.16
2018-12-03T18:30:59.797Z,96241.11
2018-12-03T18:33:28.308Z,96232.70
2018-12-03T18:35:56.791Z,96226.47
2018-12-03T18:38:25.303Z,96223.00
2018-12-03T18:40:53.811Z,96218.83
2018-12-03T18:43:22.306Z,96214.18
2018-12-03T18:45:50.831Z,96203.69
2018-12-03T18:48:19.401Z,96151.74
2018-12-03T18:50:50.257Z,96186.72
2018-12-03T18:53:22.081Z,96184.28
2018-12-03T18:55:50.571Z,96177.19
2018-12-03T18:58:39.641Z,96181.84
2018-12-03T19:01:08.141Z,96180.72
2018-12-03T19:03:36.665Z,96181.77
2018-12-03T19:06:05.911Z,96187.08
2018-12-03T19:08:34.427Z,96187.39
2018-12-03T19:11:02.945Z,96193.92
2018-12-03T19:13:31.444Z,96191.68
2018-12-03T19:15:59.974Z,96190.91
2018-12-03T19:18:28.741Z,96182.83
2018-12-03T19:20:57.450Z,96182.91
2018-12-03T19:23:25.940Z,96157.83
2018-12-03T19:26:28.836Z,96147.11
2018-12-03T19:28:56.326Z,96142.72
2018-12-03T19:31:23.818Z,96139.47
2018-12-03T19:33:51.303Z,96150.13
2018-12-03T19:36:19.806Z,96149.63
2018-12-03T19:38:47.329Z,96151.55
2018-12-03T19:41:14.902Z,96156.38
2018-12-03T19:43:42.413Z,96142.67
2018-12-03T19:46:09.905Z,96141.28
2018-12-03T19:48:37.397Z,96137.41
2018-12-03T19:51:04.878Z,96135.86
2018-12-03T19:53:32.362Z,96141.28
2018-12-03T19:55:59.877Z,96135.27
2018-12-03T19:58:27.365Z,96131.30
2018-12-03T20:00:54.852Z,96114.34
2018-12-03T20:03:23.268Z,96109.42
2018-12-03T20:05:50.756Z,96114.25
2018-12-03T20:08:18.243Z,96116.38
2018-12-03T20:10:45.733Z,96117.70
2018-12-03T20:13:13.226Z,96130.80
2018-12-03T20:15:40.725Z,96133.14
2018-12-03T20:18:08.340Z,96141.28
2018-12-03T20:20:36.608Z,96141.42
2018-12-03T20:23:04.099Z,96157.39
2018-12-03T20:25:31.796Z,96166.05
2018-12-03T20:27:59.290Z,96178.52
2018-12-03T20:30:31.756Z,96191.77
2018-12-03T20:32:59.251Z,96195.75
2018-12-03T20:35:26.732Z,96197.70
2018-12-03T20:37:54.213Z,96211.02
2018-12-03T20:40:21.751Z,96229.30
2018-12-03T20:42:49.251Z,96244.55
2018-12-03T20:45:22.563Z,96194.11
2018-12-03T20:47:50.630Z,96252.92
2018-12-03T20:50:28.258Z,96242.19
2018-12-03T20:52:55.740Z,96240.47
2018-12-03T20:55:23.238Z,96242.44
2018-12-03T20:57:50.733Z,96243.98
2018-12-03T21:00:18.245Z,96242.65
2018-12-03T21:02:46.893Z,96248.45
2018-12-03T21:05:14.394Z,96252.16
2018-12-03T21:07:41.886Z,96239.37
2018-12-03T21:10:11.551Z,96254.68
2018-12-03T21:12:39.060Z,96255.98
2018-12-03T21:15:06.562Z,96247.69
2018-12-03T21:17:34.077Z,96256.05
2018-12-03T21:20:01.650Z,96266.43
2018-12-03T21:22:29.143Z,96267.16
2018-12-03T21:24:56.641Z,96274.95
2018-12-03T21:27:24.125Z,96267.27
2018-12-03T21:29:51.621Z,96292.56
2018-12-03T21:32:19.114Z,96290.05
2018-12-03T21:34:46.620Z,96295.15
2018-12-03T21:37:14.132Z,96302.87
2018-12-03T21:39:41.622Z,96308.36
2018-12-03T21:42:09.114Z,96313.31
2018-12-03T21:44:36.633Z,96333.38
2018-12-03T21:47:04.138Z,96355.88
2018-12-03T21:49:31.640Z,96345.51
2018-12-03T21:51:59.121Z,96384.05
2018-12-03T21:54:26.642Z,96395.72
2018-12-03T21:56:54.193Z,96422.32
2018-12-03T21:59:21.678Z,96433.97
2018-12-03T22:01:49.170Z,96456.20
2018-12-03T22:04:16.644Z,96471.81
2018-12-03T22:06:44.154Z,96493.49
2018-12-03T22:09:11.636Z,96509.67
2018-12-03T22:11:39.154Z,96527.48
2018-12-03T22:14:06.641Z,96546.96
2018-12-03T22:16:34.149Z,96556.77
2018-12-03T22:19:01.641Z,96564.09
2018-12-03T22:21:29.125Z,96566.77
2018-12-03T22:23:56.603Z,96582.93
2018-12-03T22:26:24.098Z,96594.15
2018-12-03T22:28:51.610Z,96599.67
2018-12-03T22:31:19.099Z,96602.34
2018-12-03T22:33:46.597Z,96608.53
2018-12-03T22:36:14.106Z,96616.36
2018-12-03T22:38:41.595Z,96625.59
2018-12-03T22:41:09.109Z,96634.20
2018-12-03T22:43:36.597Z,96639.43
2018-12-03T22:46:04.072Z,96648.22
2018-12-03T22:48:31.585Z,96645.33
2018-12-03T22:50:59.068Z,96652.19
2018-12-03T22:53:26.561Z,96659.81
2018-12-03T22:55:54.058Z,96668.05
2018-12-03T22:58:21.549Z,96669.20
2018-12-03T23:00:51.017Z,96670.00
2018-12-03T23:03:18.510Z,96669.03
2018-12-03T23:05:46.011Z,96680.34
2018-12-03T23:08:13.626Z,96687.52
2018-12-03T23:10:41.152Z,96697.84
2018-12-03T23:13:08.650Z,96699.80
2018-12-03T23:15:36.151Z,96706.27
2018-12-03T23:18:03.632Z,96699.15
2018-12-03T23:20:31.126Z,96704.26
2018-12-03T23:22:58.605Z,96705.10
2018-12-03T23:25:26.085Z,96668.88
2018-12-03T23:27:53.612Z,96707.23
2018-12-03T23:30:21.094Z,96709.55
2018-12-03T23:32:48.581Z,96711.09
2018-12-03T23:35:16.075Z,96712.08
2018-12-03T23:37:43.565Z,96703.58
2018-12-03T23:40:11.075Z,96709.66
2018-12-03T23:42:38.570Z,96717.52
2018-12-03T23:45:06.056Z,96646.74
2018-12-03T23:47:33.540Z,96713.63
2018-12-03T23:50:01.023Z,96705.31
2018-12-03T23:52:30.454Z,96717.11
2018-12-03T23:54:57.946Z,96713.91
2018-12-03T23:57:25.502Z,96704.28
2018-12-03T23:59:52.981Z,96699.27
